Time;durP1;ratioP1;P1;durP2;ratioP2;P2;SDS_P1;SDS_P2;PMS_P1;PMS_P2;Temp;Humidity;BMP_temperature;BMP_pressure;BME280_temperature;BME280_humidity;BME280_pressure;Samples;Min_cycle;Max_cycle;Signal;HPM_P1;HPM_P2
2023/07/23 00:01:00;;;;;;;6.20;5.00;;;;;;;20.70;100.00;99975.12;105254;1257;72731;-64
2023/07/23 00:03:27;;;;;;;7.00;4.60;;;;;;;20.72;100.00;99977.34;105369;1257;67077;-62
2023/07/23 00:05:54;;;;;;;4.70;3.80;;;;;;;20.72;100.00;99973.73;105115;1257;72690;-63
2023/07/23 00:08:21;;;;;;;5.10;4.20;;;;;;;20.73;100.00;99973.44;105268;1259;61361;-62
2023/07/23 00:10:54;;;;;;;7.20;4.00;;;;;;;20.74;100.00;99966.88;105286;1255;61407;-64
2023/07/23 00:13:22;;;;;;;6.20;4.30;;;;;;;20.76;100.00;99964.02;105027;1257;74802;-65
2023/07/23 00:15:49;;;;;;;7.90;4.90;;;;;;;20.77;100.00;99966.52;105575;1257;67388;-72
2023/07/23 00:18:16;;;;;;;7.60;4.10;;;;;;;20.77;100.00;99964.02;105064;1259;72725;-64
2023/07/23 00:20:43;;;;;;;6.10;3.80;;;;;;;20.77;100.00;99962.97;105218;1259;61553;-65
2023/07/23 00:23:11;;;;;;;6.30;4.00;;;;;;;20.77;100.00;99961.27;105241;1256;60423;-66
2023/07/23 00:25:38;;;;;;;5.80;4.10;;;;;;;20.76;100.00;99961.11;105757;1257;73144;-72
2023/07/23 00:28:06;;;;;;;5.30;4.30;;;;;;;20.77;100.00;99955.77;104841;1259;65914;-64
2023/07/23 00:30:34;;;;;;;7.40;4.70;;;;;;;20.76;100.00;99956.56;105182;1259;72540;-63
2023/07/23 00:33:01;;;;;;;4.90;4.10;;;;;;;20.76;100.00;99962.02;105257;1259;61230;-66
2023/07/23 00:35:29;;;;;;;6.40;4.50;;;;;;;20.76;100.00;99961.16;105305;1257;61218;-74
2023/07/23 00:37:56;;;;;;;10.40;4.70;;;;;;;20.76;100.00;99958.41;105463;1259;76025;-71
2023/07/23 00:40:23;;;;;;;5.80;3.90;;;;;;;20.76;100.00;99960.41;104978;1257;67660;-62
2023/07/23 00:42:51;;;;;;;6.40;4.80;;;;;;;20.77;100.00;99956.78;105236;1258;72707;-62
2023/07/23 00:45:19;;;;;;;6.50;3.90;;;;;;;20.77;100.00;99955.45;105260;1257;61429;-63
2023/07/23 00:47:46;;;;;;;6.50;4.30;;;;;;;20.76;100.00;99951.41;105330;1256;61225;-71
2023/07/23 00:50:13;;;;;;;7.10;4.20;;;;;;;20.77;100.00;99952.75;105546;1255;73935;-64
2023/07/23 00:52:41;;;;;;;7.80;3.70;;;;;;;20.76;100.00;99953.95;104714;1257;67774;-62
2023/07/23 00:55:08;;;;;;;5.40;3.40;;;;;;;20.75;100.00;99953.36;105091;1262;72695;-64
2023/07/23 00:57:35;;;;;;;5.90;3.80;;;;;;;20.74;100.00;99946.69;105208;1257;61335;-64
2023/07/23 01:00:05;;;;;;;5.80;4.30;;;;;;;20.73;100.00;99947.12;105284;1256;61119;-69
2023/07/23 01:02:32;;;;;;;4.60;3.60;;;;;;;20.71;100.00;99947.77;104897;1258;75182;-65
2023/07/23 01:04:59;;;;;;;6.90;3.80;;;;;;;20.69;100.00;99947.79;105228;1256;65856;-64
2023/07/23 01:07:26;;;;;;;7.30;4.30;;;;;;;20.66;100.00;99946.27;104948;1257;72516;-63
2023/07/23 01:09:53;;;;;;;5.40;3.70;;;;;;;20.63;100.00;99947.63;105738;1256;61210;-64
2023/07/23 01:12:20;;;;;;;7.90;4.00;;;;;;;20.60;100.00;99949.20;104695;1256;61397;-69
2023/07/23 01:14:47;;;;;;;5.80;3.90;;;;;;;20.56;100.00;99947.02;105226;1256;73985;-62
2023/07/23 01:17:15;;;;;;;7.00;4.60;;;;;;;20.52;100.00;99948.31;105013;1259;65875;-68
2023/07/23 01:19:42;;;;;;;5.50;4.10;;;;;;;20.47;100.00;99950.16;104902;1262;71265;-68
2023/07/23 01:22:09;;;;;;;7.00;4.10;;;;;;;20.43;100.00;99948.87;105174;1259;61224;-64
2023/07/23 01:24:36;;;;;;;5.90;3.50;;;;;;;20.39;100.00;99951.59;105386;1255;61214;-63
2023/07/23 01:27:04;;;;;;;7.50;4.10;;;;;;;20.37;100.00;99957.98;105206;1255;74545;-63
2023/07/23 01:29:31;;;;;;;4.80;3.70;;;;;;;20.35;100.00;99964.88;105173;1257;67181;-62
2023/07/23 01:31:58;;;;;;;5.80;4.50;;;;;;;20.33;100.00;99967.27;105122;1257;73083;-62
2023/07/23 01:34:25;;;;;;;9.90;4.40;;;;;;;20.31;100.00;99962.14;105410;1259;62141;-67
2023/07/23 01:36:52;;;;;;;8.70;4.10;;;;;;;20.29;100.00;99963.17;104770;1262;61241;-63
2023/07/23 01:39:19;;;;;;;8.80;4.00;;;;;;;20.27;100.00;99964.18;104980;1261;74643;-60
2023/07/23 01:41:46;;;;;;;6.40;4.30;;;;;;;20.25;100.00;99959.86;105253;1259;67194;-69
2023/07/23 01:44:13;;;;;;;7.20;4.40;;;;;;;20.24;100.00;99958.91;104977;1257;71625;-62
2023/07/23 01:46:40;;;;;;;5.70;4.20;;;;;;;20.23;100.00;99954.87;104991;1257;62129;-62
2023/07/23 01:49:07;;;;;;;5.90;4.30;;;;;;;20.20;100.00;99955.01;105227;1256;61174;-63
2023/07/23 01:51:34;;;;;;;6.00;4.30;;;;;;;20.15;100.00;99955.66;105024;1261;74742;-63
2023/07/23 01:54:01;;;;;;;6.90;4.10;;;;;;;20.12;100.00;99956.87;105285;1257;66197;-63
2023/07/23 01:56:28;;;;;;;7.30;4.50;;;;;;;20.12;100.00;99962.21;105224;1257;71768;-61
2023/07/23 01:58:55;;;;;;;6.90;4.60;;;;;;;20.14;100.00;99962.11;104917;1257;61339;-60
2023/07/23 02:01:22;;;;;;;8.00;4.70;;;;;;;20.15;100.00;99957.23;104974;1262;61230;-60
2023/07/23 02:03:50;;;;;;;6.70;4.80;;;;;;;20.14;100.00;99956.72;105371;1259;72411;-67
2023/07/23 02:06:16;;;;;;;10.20;4.70;;;;;;;20.14;100.00;99951.30;104707;1257;67702;-60
2023/07/23 02:08:43;;;;;;;7.10;4.50;;;;;;;20.14;100.00;99956.02;105264;1259;71762;-61
2023/07/23 02:11:11;;;;;;;6.80;4.90;;;;;;;20.14;100.00;99957.93;105102;1257;63332;-61
2023/07/23 02:13:38;;;;;;;10.80;5.20;;;;;;;20.15;100.00;99956.05;105545;1255;61227;-70
2023/07/23 02:16:05;;;;;;;8.40;5.20;;;;;;;20.17;100.00;99958.96;105129;1256;75894;-61
2023/07/23 02:18:32;;;;;;;7.70;4.70;;;;;;;20.17;100.00;99955.68;105062;1257;67181;-61
2023/07/23 02:20:59;;;;;;;6.10;5.20;;;;;;;20.17;100.00;99951.50;105170;1262;72642;-69
2023/07/23 02:23:26;;;;;;;9.70;5.50;;;;;;;20.18;100.00;99947.59;105130;1257;61322;-61
2023/07/23 02:25:53;;;;;;;6.50;4.70;;;;;;;20.20;100.00;99945.80;105210;1256;61237;-61
2023/07/23 02:28:20;;;;;;;7.20;4.70;;;;;;;20.21;100.00;99945.28;105290;1256;74701;-60
2023/07/23 02:30:55;;;;;;;9.80;5.10;;;;;;;20.23;100.00;99936.88;105263;1259;65998;-71
2023/07/23 02:33:22;;;;;;;9.10;5.40;;;;;;;20.27;100.00;99940.02;105048;1257;71478;-61
2023/07/23 02:35:50;;;;;;;8.50;5.40;;;;;;;20.30;100.00;99945.61;105217;1257;61310;-61
2023/07/23 02:38:17;;;;;;;9.60;6.10;;;;;;;20.31;100.00;99936.09;105178;1256;61139;-61
2023/07/23 02:40:44;;;;;;;6.30;4.90;;;;;;;20.30;100.00;99935.92;105520;1259;75431;-60
2023/07/23 02:43:12;;;;;;;9.90;5.60;;;;;;;20.30;100.00;99934.16;105105;1257;66095;-61
2023/07/23 02:45:40;;;;;;;8.80;5.80;;;;;;;20.30;100.00;99934.11;105306;1259;72678;-69
2023/07/23 02:48:07;;;;;;;12.80;5.10;;;;;;;20.30;100.00;99929.77;105215;1259;61356;-60
2023/07/23 02:50:34;;;;;;;6.90;4.70;;;;;;;20.31;100.00;99928.36;105094;1256;309610;-62
2023/07/23 02:53:01;;;;;;;6.60;5.40;;;;;;;20.32;100.00;99934.82;104924;1259;74734;-67
2023/07/23 02:55:28;;;;;;;8.20;4.70;;;;;;;20.33;100.00;99945.05;105168;1257;65861;-69
2023/07/23 02:57:56;;;;;;;8.80;5.40;;;;;;;20.34;100.00;99947.98;105293;1257;73190;-61
2023/07/23 03:00:23;;;;;;;9.60;5.00;;;;;;;20.38;100.00;99943.59;105062;1261;61375;-61
2023/07/23 03:02:50;;;;;;;11.60;4.90;;;;;;;20.44;100.00;99942.20;105564;1257;61285;-66
2023/07/23 03:05:17;;;;;;;8.20;4.80;;;;;;;20.48;100.00;99940.27;104871;1256;74662;-69
2023/07/23 03:07:45;;;;;;;10.30;5.30;;;;;;;20.53;100.00;99942.81;105051;1257;67991;-62
2023/07/23 03:10:12;;;;;;;7.90;4.80;;;;;;;20.57;100.00;99938.17;105074;1257;72698;-61
2023/07/23 03:12:39;;;;;;;7.30;4.70;;;;;;;20.63;100.00;99937.73;105184;1259;61356;-61
2023/07/23 03:15:07;;;;;;;7.70;4.90;;;;;;;20.68;100.00;99931.88;105233;1259;59846;-61
2023/07/23 03:17:34;;;;;;;11.10;6.10;;;;;;;20.71;100.00;99924.27;105347;1257;73678;-63
2023/07/23 03:20:01;;;;;;;8.30;4.60;;;;;;;20.72;100.00;99918.94;105101;1257;67170;-60
2023/07/23 03:22:28;;;;;;;11.50;5.10;;;;;;;20.72;100.00;99924.91;104977;1257;71571;-61
2023/07/23 03:24:55;;;;;;;8.00;4.70;;;;;;;20.72;100.00;99926.80;105230;1256;61960;-65
2023/07/23 03:27:22;;;;;;;7.40;4.50;;;;;;;20.71;100.00;99927.77;105199;1259;61196;-61
2023/07/23 03:29:49;;;;;;;7.20;5.40;;;;;;;20.72;100.00;99933.27;105296;1256;74656;-64
2023/07/23 03:32:16;;;;;;;6.40;5.00;;;;;;;20.72;100.00;99933.55;105153;1259;67465;-61
2023/07/23 03:34:43;;;;;;;9.40;5.00;;;;;;;20.74;100.00;99929.05;105216;1259;71524;-61
2023/07/23 03:37:10;;;;;;;6.80;4.80;;;;;;;20.74;100.00;99923.16;105107;1259;61287;-61
2023/07/23 03:39:37;;;;;;;12.10;4.80;;;;;;;20.75;100.00;99912.20;105449;1256;61247;-69
2023/07/23 03:42:06;;;;;;;15.50;5.30;;;;;;;20.76;100.00;99906.65;105181;1259;75156;-61
2023/07/23 03:44:33;;;;;;;8.70;5.10;;;;;;;20.77;100.00;99896.58;105136;1257;67305;-61
2023/07/23 03:47:09;;;;;;;8.90;4.50;;;;;;;20.80;100.00;99896.81;105175;1259;71529;-62
2023/07/23 03:49:36;;;;;;;7.80;5.20;;;;;;;20.83;100.00;99904.34;104960;1257;61843;-69
2023/07/23 03:52:04;;;;;;;9.00;5.40;;;;;;;20.90;100.00;99907.39;105156;1257;61331;-61
2023/07/23 03:54:32;;;;;;;8.80;4.60;;;;;;;20.99;100.00;99908.48;105547;1255;73461;-62
2023/07/23 03:56:59;;;;;;;7.60;5.10;;;;;;;21.09;100.00;99902.10;105208;1257;67800;-62
2023/07/23 03:59:32;;;;;;;8.00;4.60;;;;;;;21.20;100.00;99899.11;105158;1256;71568;-62
2023/07/23 04:01:58;;;;;;;11.60;5.10;;;;;;;21.33;100.00;99888.27;105093;1255;61362;-61
2023/07/23 04:04:25;;;;;;;8.60;5.00;;;;;;;21.45;100.00;99884.39;105087;1261;61145;-60
2023/07/23 04:06:53;;;;;;;9.50;5.50;;;;;;;21.56;100.00;99877.23;105334;1259;73938;-67
2023/07/23 04:09:20;;;;;;;11.10;5.10;;;;;;;21.66;100.00;99871.93;105124;1259;67652;-60
2023/07/23 04:11:47;;;;;;;9.60;4.90;;;;;;;21.75;100.00;99869.54;105384;1257;71856;-66
2023/07/23 04:14:14;;;;;;;15.30;6.10;;;;;;;21.86;100.00;99875.15;104937;1257;61342;-60
2023/07/23 04:16:41;;;;;;;9.30;5.00;;;;;;;22.00;100.00;99878.33;105448;1257;61292;-60
2023/07/23 04:19:07;;;;;;;7.30;5.10;;;;;;;22.12;100.00;99875.23;104796;1259;74585;-60
2023/07/23 04:21:35;;;;;;;11.40;4.60;;;;;;;22.24;100.00;99870.72;105180;1259;66247;-61
2023/07/23 04:24:02;;;;;;;8.50;5.00;;;;;;;22.33;100.00;99874.95;105248;1259;71313;-67
2023/07/23 04:26:30;;;;;;;8.40;4.80;;;;;;;22.42;100.00;99876.14;105183;1259;61202;-59
2023/07/23 04:28:58;;;;;;;9.00;5.10;;;;;;;22.47;100.00;99880.79;105078;1262;60419;-60
2023/07/23 04:31:26;;;;;;;9.70;4.80;;;;;;;22.51;100.00;99876.06;105248;1257;74404;-60
2023/07/23 04:33:53;;;;;;;9.60;5.60;;;;;;;22.52;100.00;99872.39;105405;1259;65802;-63
2023/07/23 04:36:20;;;;;;;11.70;5.20;;;;;;;22.48;100.00;99877.55;105192;1257;72652;-60
2023/07/23 04:38:48;;;;;;;6.30;4.40;;;;;;;22.44;100.00;99888.72;105228;1257;62227;-60
2023/07/23 04:41:15;;;;;;;10.00;5.80;;;;;;;22.42;100.00;99890.16;105351;1256;61625;-60
2023/07/23 04:43:42;;;;;;;10.60;5.10;;;;;;;22.39;100.00;99889.38;105261;1257;73734;-61
2023/07/23 04:46:09;;;;;;;7.10;4.70;;;;;;;22.36;100.00;99889.70;105619;1259;67283;-69
2023/07/23 04:48:36;;;;;;;12.10;5.30;;;;;;;22.35;100.00;99893.43;104772;1259;73101;-61
2023/07/23 04:51:05;;;;;;;9.00;5.20;;;;;;;22.34;100.00;99891.61;105109;1257;62015;-61
2023/07/23 04:53:32;;;;;;;7.80;5.30;;;;;;;22.34;100.00;99885.50;105177;1259;61419;-62
2023/07/23 04:56:01;;;;;;;9.00;5.40;;;;;;;22.32;100.00;99889.38;105153;1257;73267;-62
2023/07/23 04:58:28;;;;;;;7.70;5.00;;;;;;;22.28;100.00;99893.70;105466;1259;65935;-67
2023/07/23 05:00:55;;;;;;;9.60;5.40;;;;;;;22.26;100.00;99894.45;105087;1259;72419;-61
2023/07/23 05:03:22;;;;;;;9.30;5.50;;;;;;;22.22;100.00;99888.45;105215;1257;61326;-61
2023/07/23 05:05:50;;;;;;;10.80;5.40;;;;;;;22.16;100.00;99891.66;105100;1259;61237;-63
2023/07/23 05:08:20;;;;;;;11.00;5.30;;;;;;;22.06;100.00;99895.20;105439;1259;74510;-66
2023/07/23 05:10:47;;;;;;;10.70;6.20;;;;;;;21.96;100.00;99892.98;104974;1257;67630;-62
2023/07/23 05:13:14;;;;;;;13.30;6.10;;;;;;;21.86;100.00;99894.95;105191;1259;71546;-62
2023/07/23 05:15:41;;;;;;;10.20;5.70;;;;;;;21.82;100.00;99893.30;105080;1257;62348;-61
2023/07/23 05:18:09;;;;;;;12.00;5.60;;;;;;;21.81;100.00;99896.33;105344;1259;61261;-69
2023/07/23 05:20:36;;;;;;;7.90;5.40;;;;;;;21.81;100.00;99906.89;105321;1259;73234;-71
2023/07/23 05:23:03;;;;;;;7.50;4.90;;;;;;;21.81;100.00;99921.16;105183;1259;65773;-65
2023/07/23 05:25:31;;;;;;;12.00;5.60;;;;;;;21.82;100.00;99929.17;105240;1259;71656;-65
2023/07/23 05:27:58;;;;;;;10.30;5.70;;;;;;;21.80;100.00;99935.29;105284;1257;61105;-66
2023/07/23 05:30:25;;;;;;;8.30;5.40;;;;;;;21.80;100.00;99937.73;105210;1256;61227;-61
2023/07/23 05:32:52;;;;;;;9.10;5.00;;;;;;;21.80;100.00;99932.36;105447;1255;73117;-64
2023/07/23 05:35:19;;;;;;;7.80;5.20;;;;;;;21.83;100.00;99930.14;105201;1257;67250;-63
2023/07/23 05:37:46;;;;;;;10.20;5.70;;;;;;;21.92;100.00;99932.78;105385;1257;73879;-78
2023/07/23 05:40:13;;;;;;;9.40;5.30;;;;;;;22.06;100.00;99936.70;105120;1259;61994;-63
2023/07/23 05:42:40;;;;;;;8.10;5.70;;;;;;;22.23;100.00;99941.13;105160;1257;61531;-63
2023/07/23 05:45:08;;;;;;;11.20;5.80;;;;;;;22.48;100.00;99946.62;105121;1259;73666;-76
2023/07/23 05:47:35;;;;;;;11.80;6.10;;;;;;;22.78;100.00;99947.92;105247;1255;67462;-63
2023/07/23 05:50:03;;;;;;;9.10;5.50;;;;;;;23.12;100.00;99937.73;105368;1259;72699;-75
2023/07/23 05:52:30;;;;;;;8.20;6.00;;;;;;;23.42;100.00;99922.14;104997;1262;61983;-65
2023/07/23 05:54:57;;;;;;;11.10;5.50;;;;;;;23.59;100.00;99903.25;105225;1257;61343;-64
2023/07/23 05:57:24;;;;;;;11.80;6.00;;;;;;;23.66;100.00;99890.81;105143;1257;74521;-67
2023/07/23 05:59:50;;;;;;;11.10;6.30;;;;;;;23.72;100.00;99877.52;105173;1257;67925;-69
2023/07/23 06:02:17;;;;;;;9.40;5.60;;;;;;;23.77;100.00;99876.46;104972;1262;71098;-62
2023/07/23 06:04:44;;;;;;;9.80;5.60;;;;;;;23.85;100.00;99873.10;105215;1259;61234;-63
2023/07/23 06:07:11;;;;;;;9.60;5.60;;;;;;;23.87;100.00;99859.34;105437;1257;61272;-63
2023/07/23 06:09:38;;;;;;;9.80;6.00;;;;;;;23.82;100.00;99854.70;105238;1259;74752;-61
2023/07/23 06:12:06;;;;;;;9.40;7.20;;;;;;;23.77;100.00;99847.99;105389;1260;66042;-63
2023/07/23 06:14:33;;;;;;;10.60;6.40;;;;;;;23.71;100.00;99846.50;105107;1262;72728;-61
2023/07/23 06:17:00;;;;;;;9.20;6.50;;;;;;;23.73;100.00;99845.15;105048;1257;61662;-62
2023/07/23 06:19:27;;;;;;;9.30;5.80;;;;;;;24.01;100.00;99840.89;105108;1256;61151;-62
2023/07/23 06:21:54;;;;;;;7.00;5.30;;;;;;;24.67;100.00;99832.79;105459;1257;73853;-64
2023/07/23 06:24:21;;;;;;;8.60;6.10;;;;;;;25.31;100.00;99824.11;104830;1257;67028;-64
2023/07/23 06:26:49;;;;;;;8.60;6.80;;;;;;;25.63;100.00;99821.33;105226;1257;71445;-61
2023/07/23 06:29:15;;;;;;;7.80;6.00;;;;;;;25.86;100.00;99819.30;105142;1257;61355;-62
2023/07/23 06:31:43;;;;;;;10.30;6.80;;;;;;;26.01;100.00;99812.82;105390;1262;61144;-63
2023/07/23 06:34:10;;;;;;;7.50;6.40;;;;;;;26.09;100.00;99814.71;105279;1257;74204;-68
2023/07/23 06:36:37;;;;;;;10.00;6.60;;;;;;;26.13;100.00;99808.77;105063;1257;66349;-63
2023/07/23 06:39:04;;;;;;;11.70;6.00;;;;;;;26.02;100.00;99804.70;105115;1262;71498;-62
2023/07/23 06:41:31;;;;;;;9.00;5.80;;;;;;;25.96;100.00;99799.73;105513;1258;61288;-62
2023/07/23 06:43:59;;;;;;;8.00;6.30;;;;;;;26.06;100.00;99795.75;106281;1257;60858;-68
2023/07/23 06:46:26;;;;;;;8.40;6.10;;;;;;;26.41;100.00;99792.21;105475;1259;74641;-66
2023/07/23 06:48:53;;;;;;;7.80;5.90;;;;;;;26.80;100.00;99795.29;105084;1260;66903;-62
2023/07/23 06:51:20;;;;;;;8.90;5.70;;;;;;;26.95;100.00;99792.92;105038;1257;72821;-63
2023/07/23 06:53:47;;;;;;;9.60;6.00;;;;;;;27.22;100.00;99793.73;105098;1257;61235;-62
2023/07/23 06:56:16;;;;;;;9.60;6.40;;;;;;;27.89;100.00;99792.08;104752;1257;61250;-62
2023/07/23 06:58:44;;;;;;;8.60;6.00;;;;;;;28.68;100.00;99787.46;105185;1257;74739;-67
2023/07/23 07:01:11;;;;;;;8.70;5.40;;;;;;;29.23;100.00;99786.14;105013;1257;67309;-61
2023/07/23 07:03:38;;;;;;;10.30;5.10;;;;;;;29.89;100.00;99787.84;105065;1257;72452;-60
2023/07/23 07:06:05;;;;;;;6.30;4.80;;;;;;;30.64;100.00;99787.45;105076;1257;61285;-61
2023/07/23 07:08:32;;;;;;;9.40;5.50;;;;;;;31.13;100.00;99787.03;104752;1257;61260;-62
2023/07/23 07:11:01;;;;;;;8.30;5.80;;;;;;;31.32;100.00;99791.63;105286;1259;74774;-61
2023/07/23 07:13:28;;;;;;;7.60;5.30;;;;;;;31.32;100.00;99791.95;105227;1259;66548;-61
2023/07/23 07:15:55;;;;;;;9.10;5.40;;;;;;;31.45;100.00;99788.23;105205;1257;71647;-60
2023/07/23 07:18:24;;;;;;;8.70;5.30;;;;;;;31.68;100.00;99783.29;105376;1256;61254;-66
2023/07/23 07:20:59;;;;;;;8.30;5.10;;;;;;;31.91;100.00;99784.73;105163;1259;61142;-60
2023/07/23 07:23:27;;;;;;;9.70;5.00;;;;;;;32.08;100.00;99781.43;105013;1262;74345;-64
2023/07/23 07:25:58;;;;;;;7.00;4.70;;;;;;;32.18;100.00;99779.09;105193;1259;67197;-63
2023/07/23 07:28:24;;;;;;;;;;;;;;;32.37;100.00;99772.87;105374;1257;62903;-66
2023/07/23 07:30:59;;;;;;;5.80;4.10;;;;;;;32.48;100.00;99764.74;105057;1257;61314;-61
2023/07/23 07:33:29;;;;;;;6.20;4.20;;;;;;;32.46;96.15;99766.60;104928;1256;61340;-61
2023/07/23 07:35:57;;;;;;;5.60;4.30;;;;;;;32.37;94.54;99765.25;105155;1260;74760;-65
2023/07/23 07:38:25;;;;;;;5.50;4.10;;;;;;;32.44;96.70;99766.09;105507;1255;67163;-66
2023/07/23 07:40:52;;;;;;;6.10;3.90;;;;;;;32.55;94.20;99761.84;104920;1258;71244;-61
2023/07/23 07:43:19;;;;;;;6.10;3.40;;;;;;;32.75;88.66;99763.58;105163;1259;61282;-61
2023/07/23 07:45:50;;;;;;;8.10;3.80;;;;;;;32.86;76.39;99760.84;105242;1257;61330;-62
2023/07/23 07:48:20;;;;;;;7.90;4.40;;;;;;;32.79;75.67;99757.19;105720;1256;73493;-65
2023/07/23 07:50:56;;;;;;;8.00;4.00;;;;;;;33.00;76.84;99752.70;105149;1260;65749;-63
2023/07/23 07:53:23;;;;;;;6.60;3.60;;;;;;;33.37;71.30;99752.80;105205;1256;72813;-61
2023/07/23 07:55:50;;;;;;;5.70;3.20;;;;;;;33.53;63.12;99749.42;105240;1262;61250;-62
2023/07/23 07:58:17;;;;;;;5.10;3.30;;;;;;;33.75;64.78;99746.86;105523;1257;61340;-66
2023/07/23 08:00:44;;;;;;;5.70;4.40;;;;;;;33.80;63.60;99743.31;104772;1260;66484;-61
2023/07/23 08:03:12;;;;;;;6.00;3.60;;;;;;;33.53;64.47;99744.64;105070;1258;67196;-62
2023/07/23 08:05:39;;;;;;;6.10;3.30;;;;;;;33.25;67.71;99742.38;105104;1262;62966;-62
2023/07/23 08:08:06;;;;;;;7.90;4.70;;;;;;;33.02;73.92;99739.34;105102;1256;61227;-61
2023/07/23 08:10:36;;;;;;;5.40;3.30;;;;;;;33.05;77.41;99738.02;104745;1257;61224;-63
2023/07/23 08:13:04;;;;;;;6.60;3.90;;;;;;;33.29;71.34;99735.29;105121;1260;66119;-61
2023/07/23 08:15:32;;;;;;;5.60;3.70;;;;;;;33.56;69.47;99735.27;105307;1257;61244;-61
2023/07/23 08:18:00;;;;;;;5.90;3.80;;;;;;;33.70;70.18;99735.60;105100;1259;63814;-62
2023/07/23 08:20:27;;;;;;;6.50;3.70;;;;;;;33.62;69.59;99738.98;105458;1259;61349;-66
2023/07/23 08:22:55;;;;;;;6.10;4.00;;;;;;;33.29;70.71;99737.93;105275;1259;61183;-62
2023/07/23 08:25:23;;;;;;;7.10;4.20;;;;;;;33.04;74.23;99735.13;105148;1259;74747;-62
2023/07/23 08:27:58;;;;;;;6.30;3.20;;;;;;;33.16;81.29;99734.67;105335;1256;66561;-62
2023/07/23 08:30:26;;;;;;;5.30;3.60;;;;;;;33.24;69.96;99737.87;105330;1261;62744;-66
2023/07/23 08:32:58;;;;;;;6.10;3.80;;;;;;;33.10;68.77;99733.14;105459;1259;61084;-63
2023/07/23 08:35:26;;;;;;;7.80;3.30;;;;;;;33.04;71.13;99733.98;105371;1260;61346;-62
2023/07/23 08:37:54;;;;;;;6.50;3.50;;;;;;;33.07;68.89;99736.52;105630;1259;66137;-63
2023/07/23 08:40:21;;;;;;;4.90;3.20;;;;;;;33.18;65.09;99735.80;105791;1259;61221;-66
2023/07/23 08:42:54;;;;;;;5.20;3.50;;;;;;;33.29;64.50;99733.31;105028;1256;64921;-62
2023/07/23 08:45:31;;;;;;;5.70;3.70;;;;;;;33.29;62.43;99734.29;105408;1259;61290;-61
2023/07/23 08:48:14;;;;;;;4.40;3.10;;;;;;;33.35;61.98;99738.21;105361;1260;61253;-61
2023/07/23 08:50:43;;;;;;;5.30;3.40;;;;;;;33.40;61.36;99740.11;105583;1259;75386;-62
2023/07/23 08:53:11;;;;;;;6.40;3.10;;;;;;;33.49;63.58;99735.12;105457;1257;61311;-62
2023/07/23 08:55:45;;;;;;;5.70;3.20;;;;;;;33.73;61.62;99732.44;105617;1257;62892;-61
2023/07/23 08:58:14;;;;;;;5.90;4.20;;;;;;;33.94;61.02;99734.09;105872;1260;61240;-65
2023/07/23 09:00:45;;;;;;;6.20;3.80;;;;;;;33.99;62.47;99732.48;105251;1259;59978;-60
2023/07/23 09:03:19;;;;;;;5.40;3.60;;;;;;;33.80;61.51;99735.21;105550;1259;74559;-62
2023/07/23 09:05:46;;;;;;;5.70;3.60;;;;;;;33.54;60.41;99730.77;105391;1259;61117;-62
2023/07/23 09:08:13;;;;;;;5.20;3.70;;;;;;;33.49;64.21;99729.10;105551;1257;65777;-66
2023/07/23 09:10:40;;;;;;;9.10;3.90;;;;;;;33.70;64.75;99725.27;105484;1269;61136;-62
2023/07/23 09:13:11;;;;;;;6.40;3.70;;;;;;;33.98;62.07;99716.48;105462;1257;61243;-62
2023/07/23 09:15:38;;;;;;;5.60;3.80;;;;;;;34.35;60.85;99710.54;105420;1257;73872;-62
2023/07/23 09:18:05;;;;;;;6.70;3.90;;;;;;;34.88;58.43;99712.95;105599;1262;67971;-63
2023/07/23 09:20:32;;;;;;;5.70;3.90;;;;;;;35.44;54.95;99716.15;105568;1259;64137;-64
2023/07/23 09:23:07;;;;;;;5.30;3.90;;;;;;;35.75;53.12;99715.95;105472;1257;61142;-61
2023/07/23 09:25:34;;;;;;;6.70;4.00;;;;;;;35.89;52.99;99710.55;105521;1260;61236;-61
2023/07/23 09:28:00;;;;;;;8.60;4.30;;;;;;;35.93;49.78;99703.79;105573;1259;66028;-62
2023/07/23 09:30:28;;;;;;;7.20;4.20;;;;;;;35.88;53.64;99698.91;105189;1269;60081;-65
2023/07/23 09:32:58;;;;;;;6.50;4.20;;;;;;;36.15;53.09;99695.33;105270;1257;64963;-63
2023/07/23 09:35:32;;;;;;;6.40;3.90;;;;;;;36.65;50.12;99693.05;105373;1259;61384;-62
2023/07/23 09:37:59;;;;;;;5.60;4.10;;;;;;;37.20;46.84;99697.60;105415;1259;59588;-63
2023/07/23 09:40:36;;;;;;;6.20;4.10;;;;;;;37.81;43.06;99698.80;105732;1259;66083;-63
2023/07/23 09:43:03;;;;;;;7.30;4.40;;;;;;;38.38;39.97;99705.40;105548;1257;61317;-62
2023/07/23 09:45:39;;;;;;;8.90;4.80;;;;;;;38.50;37.49;99712.67;105582;1259;62708;-62
2023/07/23 09:48:07;;;;;;;7.10;4.00;;;;;;;38.22;38.02;99708.66;105539;1255;61235;-62
2023/07/23 09:50:49;;;;;;;11.00;3.90;;;;;;;38.02;38.34;99700.42;105434;1260;61158;-62
2023/07/23 09:53:16;;;;;;;5.50;4.10;;;;;;;37.76;38.42;99698.64;105363;1262;66011;-61
2023/07/23 09:55:44;;;;;;;9.30;7.20;;;;;;;37.41;39.03;99695.14;105634;1257;61205;-61
2023/07/23 09:58:11;;;;;;;6.10;4.20;;;;;;;37.03;42.06;99699.64;105286;1259;63354;-61
2023/07/23 10:00:38;;;;;;;5.50;4.00;;;;;;;36.78;42.92;99702.11;105357;1270;61328;-61
2023/07/23 10:03:05;;;;;;;7.70;4.30;;;;;;;36.71;41.29;99704.29;105607;1257;61101;-61
2023/07/23 10:05:35;;;;;;;5.90;4.00;;;;;;;36.62;43.28;99708.00;105416;1260;64602;-61
2023/07/23 10:08:05;;;;;;;6.30;4.10;;;;;;;36.65;44.06;99703.98;105703;1257;61263;-64
2023/07/23 10:10:33;;;;;;;7.80;4.60;;;;;;;36.45;42.65;99700.50;105604;1257;62537;-65
2023/07/23 10:13:00;;;;;;;6.20;4.20;;;;;;;35.96;44.88;99698.17;105532;1255;61325;-62
2023/07/23 10:15:27;;;;;;;8.70;5.20;;;;;;;35.33;50.09;99700.35;105507;1259;61216;-61
2023/07/23 10:17:56;;;;;;;11.30;8.70;;;;;;;34.86;52.69;99700.60;105296;1262;66030;-65
2023/07/23 10:20:23;;;;;;;7.70;4.70;;;;;;;34.25;58.98;99700.28;105178;1263;61554;-65
2023/07/23 10:22:51;;;;;;;7.70;4.20;;;;;;;33.72;62.35;99696.73;105241;1260;62690;-61
2023/07/23 10:25:22;;;;;;;6.80;3.90;;;;;;;33.49;68.27;99693.50;105348;1259;61253;-61
2023/07/23 10:28:08;;;;;;;7.60;4.30;;;;;;;33.45;71.33;99693.39;105548;1257;61247;-62
2023/07/23 10:30:38;;;;;;;6.10;4.10;;;;;;;33.43;70.76;99694.19;105472;1260;65618;-63
2023/07/23 10:33:11;;;;;;;7.50;6.00;;;;;;;33.47;70.87;99701.17;105529;1263;67337;-60
2023/07/23 10:35:54;;;;;;;6.60;4.70;;;;;;;33.45;73.52;99700.48;105412;1260;65139;-62
2023/07/23 10:38:26;;;;;;;6.60;4.60;;;;;;;33.46;74.03;99704.22;105455;1263;61208;-62
2023/07/23 10:40:54;;;;;;;8.70;4.30;;;;;;;33.53;74.81;99707.27;105583;1260;61234;-62
2023/07/23 10:43:21;;;;;;;6.70;4.10;;;;;;;33.43;74.98;99702.22;105663;1260;65552;-63
2023/07/23 10:46:12;;;;;;;6.20;4.50;;;;;;;33.22;81.07;99706.41;105812;1257;60560;-66
2023/07/23 10:48:40;;;;;;;8.00;4.60;;;;;;;33.11;79.20;99701.88;105471;1260;64262;-62
2023/07/23 10:51:08;;;;;;;6.30;4.30;;;;;;;33.29;77.61;99697.15;105646;1260;61207;-64
2023/07/23 10:54:09;;;;;;;6.50;4.00;;;;;;;33.80;78.05;99696.83;105804;1257;61247;-66
2023/07/23 10:56:39;;;;;;;5.30;3.70;;;;;;;34.21;72.83;99693.77;105765;1259;66133;-62
2023/07/23 10:59:06;;;;;;;6.50;4.00;;;;;;;34.23;67.53;99684.70;105468;1259;68700;-66
2023/07/23 11:01:35;;;;;;;6.30;4.60;;;;;;;33.89;70.23;99686.45;105398;1260;64122;-61
2023/07/23 11:04:16;;;;;;;6.80;4.40;;;;;;;33.38;75.18;99688.97;105230;1260;61215;-62
2023/07/23 11:07:04;;;;;;;6.20;4.90;;;;;;;32.82;84.50;99684.19;105579;1260;61311;-67
2023/07/23 11:09:33;;;;;;;6.90;4.70;;;;;;;32.30;87.03;99683.27;105076;1261;74691;-62
2023/07/23 11:12:01;;;;;;;7.60;4.70;;;;;;;31.83;94.51;99684.20;104996;1263;61129;-61
2023/07/23 11:14:29;;;;;;;7.10;5.30;;;;;;;31.47;99.56;99677.70;104912;1256;62825;-66
2023/07/23 11:16:57;;;;;;;6.20;4.60;;;;;;;31.14;100.00;99671.45;104975;1263;61376;-61
2023/07/23 11:19:25;;;;;;;7.80;5.60;;;;;;;30.89;100.00;99669.23;105047;1262;61310;-62
2023/07/23 11:22:03;;;;;;;8.10;5.20;;;;;;;30.73;100.00;99669.40;105265;1257;74123;-61
2023/07/23 11:24:30;;;;;;;8.30;5.40;;;;;;;30.71;100.00;99671.76;105170;1263;67811;-61